Terreton, Idaho
Current Conditions -  °F | °C
As of 1:53 PM on Saturday 25 Oct 2014 (Local Time) from KIDA Reporting Station
Clear Clear  
Wind Chill: 75°   Ceiling: Unl
Heat Index: 75°   Visibility: 10mi
Dew Point: 30°   Wind: 22mph
Humidity: 19%   Direction: 190°S
Pressure: 29.95"   Gusts: 29mph
Location:  43.84°N, 112.44°W
Report Text: KIDA 251953Z 19019G25KT 10SM CLR 24/M01 A2995 RMK AO2 PK WND 20031/1926 SLP114 T02391011
Loading
Personal Weather Stations






























Interactive Weather Map
Tropical Storm Tracking
New forecast layout! Learn more

10-Day Weather Forecast

Advertisements
Track Severe Weather on mobile